sensor_id;sensor_type;location;lat;lon;timestamp;pressure;altitude;pressure_sealevel;temperature;humidity
58018;BME280;43810;50.860;19.226;2023-04-24T00:00:20;97699.69;;;9.51;82.80
58018;BME280;43810;50.860;19.226;2023-04-24T00:03:06;97696.78;;;9.40;83.04
58018;BME280;43810;50.860;19.226;2023-04-24T00:05:32;97702.66;;;9.33;83.04
58018;BME280;43810;50.860;19.226;2023-04-24T00:07:58;97709.84;;;9.33;83.87
58018;BME280;43810;50.860;19.226;2023-04-24T00:10:24;97693.59;;;9.34;84.68
58018;BME280;43810;50.860;19.226;2023-04-24T00:12:50;97698.72;;;9.43;84.66
58018;BME280;43810;50.860;19.226;2023-04-24T00:15:16;97695.22;;;9.55;85.30
58018;BME280;43810;50.860;19.226;2023-04-24T00:17:41;97693.25;;;9.67;85.50
58018;BME280;43810;50.860;19.226;2023-04-24T00:20:08;97692.91;;;9.69;85.46
58018;BME280;43810;50.860;19.226;2023-04-24T00:22:35;97701.31;;;9.71;85.28
58018;BME280;43810;50.860;19.226;2023-04-24T00:25:01;97695.75;;;9.76;85.15
58018;BME280;43810;50.860;19.226;2023-04-24T00:27:27;97688.56;;;9.77;85.28
58018;BME280;43810;50.860;19.226;2023-04-24T00:29:53;97687.44;;;9.78;85.49
58018;BME280;43810;50.860;19.226;2023-04-24T00:32:19;97689.59;;;9.72;85.16
58018;BME280;43810;50.860;19.226;2023-04-24T00:34:44;97690.94;;;9.66;85.22
58018;BME280;43810;50.860;19.226;2023-04-24T00:37:10;97681.97;;;9.55;84.72
58018;BME280;43810;50.860;19.226;2023-04-24T00:39:37;97677.97;;;9.45;84.71
58018;BME280;43810;50.860;19.226;2023-04-24T00:42:03;97674.38;;;9.38;84.96
58018;BME280;43810;50.860;19.226;2023-04-24T00:44:29;97682.56;;;9.32;84.97
58018;BME280;43810;50.860;19.226;2023-04-24T00:46:55;97678.41;;;9.19;84.66
58018;BME280;43810;50.860;19.226;2023-04-24T00:49:21;97683.53;;;9.12;84.58
58018;BME280;43810;50.860;19.226;2023-04-24T00:51:47;97678.06;;;9.05;85.03
58018;BME280;43810;50.860;19.226;2023-04-24T00:54:15;97679.34;;;9.11;85.71
58018;BME280;43810;50.860;19.226;2023-04-24T00:56:41;97672.38;;;9.19;86.50
58018;BME280;43810;50.860;19.226;2023-04-24T00:59:08;97679.38;;;9.27;86.98
58018;BME280;43810;50.860;19.226;2023-04-24T01:01:34;97672.81;;;9.37;87.26
58018;BME280;43810;50.860;19.226;2023-04-24T01:04:01;97676.84;;;9.62;87.75
58018;BME280;43810;50.860;19.226;2023-04-24T01:06:28;97666.06;;;9.70;87.62
58018;BME280;43810;50.860;19.226;2023-04-24T01:08:57;97665.63;;;9.84;87.37
58018;BME280;43810;50.860;19.226;2023-04-24T01:11:24;97663.13;;;9.91;86.80
58018;BME280;43810;50.860;19.226;2023-04-24T01:13:51;97664.41;;;9.97;86.55
58018;BME280;43810;50.860;19.226;2023-04-24T01:16:18;97662.44;;;9.94;85.80
58018;BME280;43810;50.860;19.226;2023-04-24T01:18:46;97657.22;;;9.82;85.28
58018;BME280;43810;50.860;19.226;2023-04-24T01:21:15;97657.75;;;9.72;85.04
58018;BME280;43810;50.860;19.226;2023-04-24T01:23:44;97651.44;;;9.61;84.37
58018;BME280;43810;50.860;19.226;2023-04-24T01:26:11;97648.22;;;9.52;84.37
58018;BME280;43810;50.860;19.226;2023-04-24T01:28:37;97652.88;;;9.43;84.29
58018;BME280;43810;50.860;19.226;2023-04-24T01:31:03;97642.91;;;9.36;84.64
58018;BME280;43810;50.860;19.226;2023-04-24T01:33:29;97657.59;;;9.33;85.02
58018;BME280;43810;50.860;19.226;2023-04-24T01:35:55;97653.88;;;9.22;85.08
58018;BME280;43810;50.860;19.226;2023-04-24T01:38:21;97655.00;;;9.21;85.35
58018;BME280;43810;50.860;19.226;2023-04-24T01:40:47;97650.97;;;9.12;85.44
58018;BME280;43810;50.860;19.226;2023-04-24T01:43:13;97645.84;;;9.03;85.57
58018;BME280;43810;50.860;19.226;2023-04-24T01:45:38;97640.88;;;9.02;86.25
58018;BME280;43810;50.860;19.226;2023-04-24T01:48:05;97637.03;;;8.99;86.66
58018;BME280;43810;50.860;19.226;2023-04-24T01:50:30;97635.47;;;8.98;86.98
58018;BME280;43810;50.860;19.226;2023-04-24T01:52:56;97633.28;;;9.00;87.23
58018;BME280;43810;50.860;19.226;2023-04-24T01:55:22;97632.44;;;8.96;87.11
58018;BME280;43810;50.860;19.226;2023-04-24T01:57:48;97625.75;;;9.02;87.75
58018;BME280;43810;50.860;19.226;2023-04-24T02:00:14;97633.63;;;9.14;87.90
58018;BME280;43810;50.860;19.226;2023-04-24T02:02:41;97625.59;;;9.26;87.68
58018;BME280;43810;50.860;19.226;2023-04-24T02:05:08;97620.97;;;9.23;87.39
58018;BME280;43810;50.860;19.226;2023-04-24T02:07:34;97628.66;;;9.13;86.16
58018;BME280;43810;50.860;19.226;2023-04-24T02:10:00;97627.31;;;9.03;85.91
58018;BME280;43810;50.860;19.226;2023-04-24T02:12:26;97618.91;;;9.01;86.47
58018;BME280;43810;50.860;19.226;2023-04-24T02:14:51;97610.53;;;8.99;86.69
58018;BME280;43810;50.860;19.226;2023-04-24T02:17:17;97618.47;;;8.99;87.07
58018;BME280;43810;50.860;19.226;2023-04-24T02:19:44;97615.94;;;9.03;87.24
58018;BME280;43810;50.860;19.226;2023-04-24T02:22:11;97607.22;;;9.02;87.57
58018;BME280;43810;50.860;19.226;2023-04-24T02:24:37;97606.69;;;9.12;87.44
58018;BME280;43810;50.860;19.226;2023-04-24T02:27:04;97602.75;;;9.22;85.16
58018;BME280;43810;50.860;19.226;2023-04-24T02:29:30;97593.31;;;9.37;80.68
58018;BME280;43810;50.860;19.226;2023-04-24T02:31:56;97591.66;;;9.63;76.55
58018;BME280;43810;50.860;19.226;2023-04-24T02:34:22;97592.19;;;9.88;74.58
58018;BME280;43810;50.860;19.226;2023-04-24T02:36:48;97586.56;;;10.09;71.97
58018;BME280;43810;50.860;19.226;2023-04-24T02:39:15;97586.09;;;10.23;71.07
58018;BME280;43810;50.860;19.226;2023-04-24T02:41:43;97590.81;;;10.33;69.85
58018;BME280;43810;50.860;19.226;2023-04-24T02:44:08;97592.06;;;10.39;69.09
58018;BME280;43810;50.860;19.226;2023-04-24T02:46:34;97584.94;;;10.43;68.92
58018;BME280;43810;50.860;19.226;2023-04-24T02:49:00;97587.66;;;10.47;68.81
58018;BME280;43810;50.860;19.226;2023-04-24T02:51:26;97593.69;;;10.43;68.85
58018;BME280;43810;50.860;19.226;2023-04-24T02:53:52;97588.31;;;10.40;69.01
58018;BME280;43810;50.860;19.226;2023-04-24T02:56:18;97599.06;;;10.28;69.35
58018;BME280;43810;50.860;19.226;2023-04-24T02:58:44;97593.53;;;10.17;70.36
58018;BME280;43810;50.860;19.226;2023-04-24T03:01:10;97588.72;;;10.03;71.39
58018;BME280;43810;50.860;19.226;2023-04-24T03:03:37;97588.25;;;9.82;72.48
58018;BME280;43810;50.860;19.226;2023-04-24T03:06:03;97593.78;;;9.58;75.06
58018;BME280;43810;50.860;19.226;2023-04-24T03:08:31;97594.84;;;9.38;76.14
58018;BME280;43810;50.860;19.226;2023-04-24T03:10:57;97600.06;;;9.18;77.88
58018;BME280;43810;50.860;19.226;2023-04-24T03:13:23;97597.03;;;9.04;78.31
58018;BME280;43810;50.860;19.226;2023-04-24T03:15:49;97602.09;;;8.93;79.60
58018;BME280;43810;50.860;19.226;2023-04-24T03:18:15;97599.34;;;8.90;80.99
58018;BME280;43810;50.860;19.226;2023-04-24T03:20:41;97606.06;;;8.87;82.06
58018;BME280;43810;50.860;19.226;2023-04-24T03:23:06;97597.47;;;8.90;82.61
58018;BME280;43810;50.860;19.226;2023-04-24T03:25:32;97598.66;;;8.93;82.82
58018;BME280;43810;50.860;19.226;2023-04-24T03:27:58;97590.88;;;9.00;82.40
58018;BME280;43810;50.860;19.226;2023-04-24T03:30:24;97589.88;;;9.05;82.15
58018;BME280;43810;50.860;19.226;2023-04-24T03:32:49;97592.59;;;9.08;82.03
58018;BME280;43810;50.860;19.226;2023-04-24T03:35:15;97590.38;;;9.10;81.78
58018;BME280;43810;50.860;19.226;2023-04-24T03:37:41;97595.16;;;9.20;81.09
58018;BME280;43810;50.860;19.226;2023-04-24T03:40:07;97586.91;;;9.38;78.75
58018;BME280;43810;50.860;19.226;2023-04-24T03:42:33;97587.72;;;9.57;76.16
58018;BME280;43810;50.860;19.226;2023-04-24T03:44:59;97589.72;;;9.80;74.58
58018;BME280;43810;50.860;19.226;2023-04-24T03:47:25;97579.16;;;9.99;73.84
58018;BME280;43810;50.860;19.226;2023-04-24T03:49:51;97585.03;;;10.08;72.43
58018;BME280;43810;50.860;19.226;2023-04-24T03:52:17;97590.88;;;10.17;72.08
58018;BME280;43810;50.860;19.226;2023-04-24T03:54:43;97583.91;;;10.28;72.20
58018;BME280;43810;50.860;19.226;2023-04-24T03:57:08;97588.72;;;10.42;70.94
58018;BME280;43810;50.860;19.226;2023-04-24T03:59:34;97586.03;;;10.61;70.22
58018;BME280;43810;50.860;19.226;2023-04-24T04:02:00;97583.00;;;10.82;69.97
58018;BME280;43810;50.860;19.226;2023-04-24T04:04:26;97590.50;;;10.99;69.78
58018;BME280;43810;50.860;19.226;2023-04-24T04:06:52;97585.94;;;11.19;69.49
58018;BME280;43810;50.860;19.226;2023-04-24T04:09:19;97582.06;;;11.39;69.29
58018;BME280;43810;50.860;19.226;2023-04-24T04:11:44;97591.50;;;11.60;69.43
58018;BME280;43810;50.860;19.226;2023-04-24T04:14:10;97604.34;;;11.80;69.72
58018;BME280;43810;50.860;19.226;2023-04-24T04:16:36;97595.09;;;12.01;69.83
58018;BME280;43810;50.860;19.226;2023-04-24T04:19:02;97593.47;;;12.22;69.01
58018;BME280;43810;50.860;19.226;2023-04-24T04:21:29;97596.00;;;12.42;69.33
58018;BME280;43810;50.860;19.226;2023-04-24T04:23:56;97592.44;;;12.64;68.28
58018;BME280;43810;50.860;19.226;2023-04-24T04:26:22;97599.84;;;12.81;64.95
58018;BME280;43810;50.860;19.226;2023-04-24T04:28:51;97583.59;;;12.93;66.14
58018;BME280;43810;50.860;19.226;2023-04-24T04:31:21;97594.00;;;13.06;64.55
58018;BME280;43810;50.860;19.226;2023-04-24T04:33:47;97598.44;;;13.39;63.79
58018;BME280;43810;50.860;19.226;2023-04-24T04:36:12;97583.34;;;13.60;63.66
58018;BME280;43810;50.860;19.226;2023-04-24T04:38:38;97586.53;;;13.77;63.21
58018;BME280;43810;50.860;19.226;2023-04-24T04:41:05;97589.59;;;13.82;62.00
58018;BME280;43810;50.860;19.226;2023-04-24T04:43:32;97586.03;;;13.60;61.24
58018;BME280;43810;50.860;19.226;2023-04-24T04:45:59;97572.63;;;13.50;62.07
58018;BME280;43810;50.860;19.226;2023-04-24T04:48:27;97578.31;;;13.45;61.40
58018;BME280;43810;50.860;19.226;2023-04-24T04:50:52;97590.44;;;13.39;62.01
58018;BME280;43810;50.860;19.226;2023-04-24T04:53:18;97595.38;;;13.33;63.79
58018;BME280;43810;50.860;19.226;2023-04-24T04:55:44;97593.81;;;13.28;65.16
58018;BME280;43810;50.860;19.226;2023-04-24T04:58:13;97594.44;;;13.15;65.43
58018;BME280;43810;50.860;19.226;2023-04-24T05:00:38;97597.78;;;13.05;67.18
58018;BME280;43810;50.860;19.226;2023-04-24T05:03:05;97603.84;;;13.02;67.25
58018;BME280;43810;50.860;19.226;2023-04-24T05:05:30;97600.81;;;13.00;66.89
58018;BME280;43810;50.860;19.226;2023-04-24T05:07:56;97603.84;;;13.02;68.28
58018;BME280;43810;50.860;19.226;2023-04-24T05:10:24;97599.72;;;13.08;68.64
58018;BME280;43810;50.860;19.226;2023-04-24T05:12:50;97599.44;;;13.20;68.25
58018;BME280;43810;50.860;19.226;2023-04-24T05:15:16;97593.03;;;13.28;65.47
58018;BME280;43810;50.860;19.226;2023-04-24T05:17:42;97595.75;;;13.31;65.55
58018;BME280;43810;50.860;19.226;2023-04-24T05:20:08;97595.00;;;13.38;64.17
58018;BME280;43810;50.860;19.226;2023-04-24T05:22:35;97590.56;;;13.53;63.37
58018;BME280;43810;50.860;19.226;2023-04-24T05:25:03;97591.00;;;13.62;62.73
58018;BME280;43810;50.860;19.226;2023-04-24T05:27:29;97587.31;;;13.84;63.53
58018;BME280;43810;50.860;19.226;2023-04-24T05:29:55;97591.38;;;14.26;61.20
58018;BME280;43810;50.860;19.226;2023-04-24T05:32:28;97589.19;;;14.63;60.17
58018;BME280;43810;50.860;19.226;2023-04-24T05:34:54;97589.28;;;15.02;60.94
58018;BME280;43810;50.860;19.226;2023-04-24T05:37:21;97590.47;;;15.47;56.16
58018;BME280;43810;50.860;19.226;2023-04-24T05:39:46;97587.34;;;15.84;53.77
58018;BME280;43810;50.860;19.226;2023-04-24T05:42:12;97584.56;;;16.16;54.13
58018;BME280;43810;50.860;19.226;2023-04-24T05:44:38;97588.69;;;16.46;52.02
58018;BME280;43810;50.860;19.226;2023-04-24T05:47:04;97586.56;;;16.82;49.99
58018;BME280;43810;50.860;19.226;2023-04-24T05:49:30;97584.94;;;17.02;50.50
58018;BME280;43810;50.860;19.226;2023-04-24T05:51:56;97587.75;;;17.33;49.89
58018;BME280;43810;50.860;19.226;2023-04-24T05:54:23;97588.03;;;17.45;51.75
58018;BME280;43810;50.860;19.226;2023-04-24T05:56:49;97570.63;;;17.64;48.53
58018;BME280;43810;50.860;19.226;2023-04-24T05:59:16;97585.19;;;17.67;50.16
58018;BME280;43810;50.860;19.226;2023-04-24T06:01:42;97567.31;;;17.87;46.65
58018;BME280;43810;50.860;19.226;2023-04-24T06:04:07;97564.47;;;18.01;47.28
58018;BME280;43810;50.860;19.226;2023-04-24T06:06:35;97560.38;;;18.23;47.44
58018;BME280;43810;50.860;19.226;2023-04-24T06:09:00;97562.75;;;18.48;43.39
58018;BME280;43810;50.860;19.226;2023-04-24T06:11:27;97565.13;;;18.43;45.75
58018;BME280;43810;50.860;19.226;2023-04-24T06:13:52;97564.81;;;18.67;45.49
58018;BME280;43810;50.860;19.226;2023-04-24T06:16:20;97570.25;;;18.91;44.44
58018;BME280;43810;50.860;19.226;2023-04-24T06:18:46;97563.69;;;19.19;43.71
58018;BME280;43810;50.860;19.226;2023-04-24T06:21:13;97563.56;;;19.49;44.89
58018;BME280;43810;50.860;19.226;2023-04-24T06:23:38;97569.72;;;19.73;42.34
58018;BME280;43810;50.860;19.226;2023-04-24T06:26:04;97556.38;;;20.05;40.37
58018;BME280;43810;50.860;19.226;2023-04-24T06:28:30;97561.91;;;20.18;42.60
58018;BME280;43810;50.860;19.226;2023-04-24T06:30:56;97562.56;;;20.26;42.81
58018;BME280;43810;50.860;19.226;2023-04-24T06:33:22;97556.84;;;20.40;40.93
58018;BME280;43810;50.860;19.226;2023-04-24T06:35:47;97559.78;;;20.49;40.84
58018;BME280;43810;50.860;19.226;2023-04-24T06:38:13;97562.81;;;20.31;40.62
58018;BME280;43810;50.860;19.226;2023-04-24T06:40:39;97560.69;;;20.03;38.92
58018;BME280;43810;50.860;19.226;2023-04-24T06:43:05;97557.00;;;19.93;40.31
58018;BME280;43810;50.860;19.226;2023-04-24T06:45:31;97559.69;;;19.93;38.80
58018;BME280;43810;50.860;19.226;2023-04-24T06:47:57;97554.53;;;20.02;38.18
58018;BME280;43810;50.860;19.226;2023-04-24T06:50:24;97553.06;;;19.98;39.66
58018;BME280;43810;50.860;19.226;2023-04-24T06:52:49;97547.97;;;20.03;38.28
58018;BME280;43810;50.860;19.226;2023-04-24T06:55:16;97555.63;;;19.85;40.27
58018;BME280;43810;50.860;19.226;2023-04-24T06:57:43;97552.66;;;19.99;39.18
58018;BME280;43810;50.860;19.226;2023-04-24T07:00:11;97559.94;;;20.02;40.60
58018;BME280;43810;50.860;19.226;2023-04-24T07:02:37;97550.03;;;20.35;40.19
58018;BME280;43810;50.860;19.226;2023-04-24T07:05:04;97553.53;;;20.52;41.00
58018;BME280;43810;50.860;19.226;2023-04-24T07:07:30;97556.22;;;20.72;39.49
58018;BME280;43810;50.860;19.226;2023-04-24T07:09:56;97555.28;;;20.78;39.81
58018;BME280;43810;50.860;19.226;2023-04-24T07:12:23;97550.97;;;20.97;40.24
58018;BME280;43810;50.860;19.226;2023-04-24T07:14:50;97542.72;;;21.20;37.94
58018;BME280;43810;50.860;19.226;2023-04-24T07:17:16;97553.53;;;21.53;34.97
58018;BME280;43810;50.860;19.226;2023-04-24T07:19:42;97547.59;;;21.58;35.49
58018;BME280;43810;50.860;19.226;2023-04-24T07:22:07;97546.97;;;21.67;34.99
58018;BME280;43810;50.860;19.226;2023-04-24T07:24:33;97550.88;;;21.94;35.02
58018;BME280;43810;50.860;19.226;2023-04-24T07:26:59;97542.81;;;21.78;36.37
58018;BME280;43810;50.860;19.226;2023-04-24T07:29:27;97543.66;;;22.04;34.40
58018;BME280;43810;50.860;19.226;2023-04-24T07:31:52;97544.06;;;22.19;34.23
58018;BME280;43810;50.860;19.226;2023-04-24T07:34:19;97543.34;;;22.15;34.06
58018;BME280;43810;50.860;19.226;2023-04-24T07:36:45;97535.94;;;22.19;32.17
58018;BME280;43810;50.860;19.226;2023-04-24T07:39:11;97528.94;;;22.34;32.08
58018;BME280;43810;50.860;19.226;2023-04-24T07:41:37;97533.47;;;22.37;32.77
58018;BME280;43810;50.860;19.226;2023-04-24T07:44:03;97545.16;;;22.21;32.53
58018;BME280;43810;50.860;19.226;2023-04-24T07:46:30;97534.63;;;22.23;33.79
58018;BME280;43810;50.860;19.226;2023-04-24T07:48:56;97538.06;;;22.11;34.50
58018;BME280;43810;50.860;19.226;2023-04-24T07:51:21;97520.91;;;22.30;33.38
58018;BME280;43810;50.860;19.226;2023-04-24T07:53:47;97532.69;;;22.37;36.17
58018;BME280;43810;50.860;19.226;2023-04-24T07:56:13;97523.94;;;22.58;34.98
58018;BME280;43810;50.860;19.226;2023-04-24T07:58:39;97530.22;;;22.93;35.13
58018;BME280;43810;50.860;19.226;2023-04-24T08:01:05;97526.59;;;23.34;32.59
58018;BME280;43810;50.860;19.226;2023-04-24T08:03:31;97522.91;;;23.28;32.85
58018;BME280;43810;50.860;19.226;2023-04-24T08:05:57;97523.94;;;23.21;33.60
58018;BME280;43810;50.860;19.226;2023-04-24T08:08:22;97518.56;;;23.43;32.98
58018;BME280;43810;50.860;19.226;2023-04-24T08:10:48;97522.03;;;23.65;32.79
58018;BME280;43810;50.860;19.226;2023-04-24T08:13:15;97527.72;;;23.58;32.05
58018;BME280;43810;50.860;19.226;2023-04-24T08:15:40;97524.28;;;23.45;34.65
58018;BME280;43810;50.860;19.226;2023-04-24T08:18:07;97519.34;;;23.65;30.55
58018;BME280;43810;50.860;19.226;2023-04-24T08:20:32;97516.13;;;23.58;33.17
58018;BME280;43810;50.860;19.226;2023-04-24T08:22:58;97514.69;;;23.88;32.53
58018;BME280;43810;50.860;19.226;2023-04-24T08:25:24;97526.44;;;23.85;32.07
58018;BME280;43810;50.860;19.226;2023-04-24T08:27:51;97513.44;;;23.80;30.81
58018;BME280;43810;50.860;19.226;2023-04-24T08:30:17;97521.63;;;23.89;31.24
58018;BME280;43810;50.860;19.226;2023-04-24T08:32:43;97519.19;;;24.03;31.17
58018;BME280;43810;50.860;19.226;2023-04-24T08:35:09;97510.16;;;24.37;31.21
58018;BME280;43810;50.860;19.226;2023-04-24T08:37:36;97520.88;;;24.63;34.17
58018;BME280;43810;50.860;19.226;2023-04-24T08:40:22;97515.03;;;24.73;30.54
58018;BME280;43810;50.860;19.226;2023-04-24T08:42:54;97510.34;;;24.74;29.02
58018;BME280;43810;50.860;19.226;2023-04-24T08:45:21;97515.13;;;24.61;29.35
58018;BME280;43810;50.860;19.226;2023-04-24T08:47:47;97509.53;;;24.33;32.78
58018;BME280;43810;50.860;19.226;2023-04-24T08:50:14;97502.66;;;24.41;33.67
58018;BME280;43810;50.860;19.226;2023-04-24T08:52:42;97497.69;;;24.49;29.97
58018;BME280;43810;50.860;19.226;2023-04-24T08:55:08;97505.34;;;24.63;32.80
58018;BME280;43810;50.860;19.226;2023-04-24T08:57:35;97494.44;;;24.32;32.29
58018;BME280;43810;50.860;19.226;2023-04-24T09:00:04;97501.56;;;24.61;31.26
58018;BME280;43810;50.860;19.226;2023-04-24T09:02:31;97499.28;;;24.59;28.26
58018;BME280;43810;50.860;19.226;2023-04-24T09:04:57;97495.94;;;24.55;29.93
58018;BME280;43810;50.860;19.226;2023-04-24T09:07:27;97495.44;;;24.47;28.81
58018;BME280;43810;50.860;19.226;2023-04-24T09:09:54;97499.69;;;24.18;30.59
58018;BME280;43810;50.860;19.226;2023-04-24T09:12:20;97489.56;;;24.49;31.41
58018;BME280;43810;50.860;19.226;2023-04-24T09:14:48;97484.22;;;24.67;30.42
58018;BME280;43810;50.860;19.226;2023-04-24T09:17:14;97484.31;;;24.55;30.82
58018;BME280;43810;50.860;19.226;2023-04-24T09:19:40;97490.56;;;24.42;31.37
58018;BME280;43810;50.860;19.226;2023-04-24T09:22:07;97484.84;;;24.40;32.33
58018;BME280;43810;50.860;19.226;2023-04-24T09:24:34;97481.19;;;24.03;31.21
58018;BME280;43810;50.860;19.226;2023-04-24T09:27:00;97470.38;;;24.13;30.40
58018;BME280;43810;50.860;19.226;2023-04-24T09:29:27;97476.63;;;24.53;31.87
58018;BME280;43810;50.860;19.226;2023-04-24T09:31:53;97471.47;;;25.04;27.84
58018;BME280;43810;50.860;19.226;2023-04-24T09:34:23;97470.91;;;25.37;28.92
58018;BME280;43810;50.860;19.226;2023-04-24T09:36:50;97462.31;;;25.47;28.33
58018;BME280;43810;50.860;19.226;2023-04-24T09:39:16;97464.28;;;25.56;26.48
58018;BME280;43810;50.860;19.226;2023-04-24T09:41:47;97459.28;;;25.27;27.64
58018;BME280;43810;50.860;19.226;2023-04-24T09:44:17;97449.84;;;24.82;27.22
58018;BME280;43810;50.860;19.226;2023-04-24T09:46:49;97448.06;;;24.48;27.37
58018;BME280;43810;50.860;19.226;2023-04-24T09:49:21;97446.91;;;24.19;30.52
58018;BME280;43810;50.860;19.226;2023-04-24T09:51:47;97451.22;;;23.63;29.47
58018;BME280;43810;50.860;19.226;2023-04-24T09:54:18;97451.44;;;23.69;29.58
58018;BME280;43810;50.860;19.226;2023-04-24T09:56:47;97440.91;;;23.93;30.16
58018;BME280;43810;50.860;19.226;2023-04-24T09:59:14;97442.34;;;23.63;27.84
58018;BME280;43810;50.860;19.226;2023-04-24T10:01:41;97441.41;;;23.35;30.05
58018;BME280;43810;50.860;19.226;2023-04-24T10:04:19;97439.81;;;23.47;31.08
58018;BME280;43810;50.860;19.226;2023-04-24T10:06:47;97436.66;;;23.70;28.94
58018;BME280;43810;50.860;19.226;2023-04-24T10:09:15;97432.81;;;24.02;27.37
58018;BME280;43810;50.860;19.226;2023-04-24T10:11:43;97431.72;;;23.99;29.37
58018;BME280;43810;50.860;19.226;2023-04-24T10:14:16;97419.66;;;24.31;28.99
58018;BME280;43810;50.860;19.226;2023-04-24T10:16:43;97426.13;;;24.65;27.47
58018;BME280;43810;50.860;19.226;2023-04-24T10:19:09;97419.94;;;24.64;29.64
58018;BME280;43810;50.860;19.226;2023-04-24T10:21:36;97422.81;;;24.70;28.74
58018;BME280;43810;50.860;19.226;2023-04-24T10:24:12;97417.81;;;23.88;28.04
58018;BME280;43810;50.860;19.226;2023-04-24T10:26:38;97408.25;;;24.05;28.22
58018;BME280;43810;50.860;19.226;2023-04-24T10:29:05;97417.09;;;24.28;27.64
58018;BME280;43810;50.860;19.226;2023-04-24T10:31:36;97406.47;;;24.11;27.44
58018;BME280;43810;50.860;19.226;2023-04-24T10:34:04;97415.94;;;24.47;30.54
58018;BME280;43810;50.860;19.226;2023-04-24T10:36:32;97409.22;;;24.61;29.23
58018;BME280;43810;50.860;19.226;2023-04-24T10:39:01;97414.22;;;24.31;28.34
58018;BME280;43810;50.860;19.226;2023-04-24T10:41:30;97411.59;;;23.79;29.13
58018;BME280;43810;50.860;19.226;2023-04-24T10:46:32;97400.44;;;24.07;29.17
58018;BME280;43810;50.860;19.226;2023-04-24T10:48:58;97396.16;;;24.37;29.04
58018;BME280;43810;50.860;19.226;2023-04-24T10:51:42;97399.22;;;24.48;28.19
58018;BME280;43810;50.860;19.226;2023-04-24T10:59:49;97388.06;;;24.56;25.09
58018;BME280;43810;50.860;19.226;2023-04-24T11:02:15;97375.97;;;23.98;27.85
58018;BME280;43810;50.860;19.226;2023-04-24T11:04:41;97383.06;;;23.96;25.98
58018;BME280;43810;50.860;19.226;2023-04-24T11:07:10;97367.56;;;23.53;26.67
58018;BME280;43810;50.860;19.226;2023-04-24T11:09:36;97367.91;;;23.11;28.01
58018;BME280;43810;50.860;19.226;2023-04-24T11:12:20;97367.25;;;23.29;28.46
58018;BME280;43810;50.860;19.226;2023-04-24T11:15:10;97369.75;;;23.67;26.85
58018;BME280;43810;50.860;19.226;2023-04-24T11:20:15;97356.16;;;23.58;26.61
58018;BME280;43810;50.860;19.226;2023-04-24T11:22:42;97357.94;;;23.30;29.26
58018;BME280;43810;50.860;19.226;2023-04-24T11:25:09;97352.69;;;23.57;27.77
58018;BME280;43810;50.860;19.226;2023-04-24T11:27:44;97357.13;;;23.73;28.39
58018;BME280;43810;50.860;19.226;2023-04-24T11:30:17;97356.19;;;23.67;27.44
58018;BME280;43810;50.860;19.226;2023-04-24T11:32:48;97354.53;;;23.60;25.07
58018;BME280;43810;50.860;19.226;2023-04-24T11:35:15;97353.16;;;23.87;27.33
58018;BME280;43810;50.860;19.226;2023-04-24T11:37:50;97354.56;;;24.00;25.04
58018;BME280;43810;50.860;19.226;2023-04-24T11:40:17;97358.22;;;23.54;24.58
58018;BME280;43810;50.860;19.226;2023-04-24T11:42:44;97351.63;;;23.55;24.70
58018;BME280;43810;50.860;19.226;2023-04-24T11:45:15;97354.84;;;23.40;25.57
58018;BME280;43810;50.860;19.226;2023-04-24T11:50:38;97340.09;;;23.42;22.74
58018;BME280;43810;50.860;19.226;2023-04-24T11:53:05;97344.81;;;23.50;27.46
58018;BME280;43810;50.860;19.226;2023-04-24T11:55:30;97346.63;;;23.53;25.82
58018;BME280;43810;50.860;19.226;2023-04-24T11:57:58;97339.25;;;23.75;26.58
58018;BME280;43810;50.860;19.226;2023-04-24T12:00:28;97343.91;;;24.06;30.77
58018;BME280;43810;50.860;19.226;2023-04-24T12:05:31;97341.28;;;23.93;28.64
58018;BME280;43810;50.860;19.226;2023-04-24T12:07:57;97342.97;;;24.09;27.83
58018;BME280;43810;50.860;19.226;2023-04-24T12:10:27;97340.25;;;24.00;28.08
58018;BME280;43810;50.860;19.226;2023-04-24T12:12:55;97333.34;;;24.08;27.88
58018;BME280;43810;50.860;19.226;2023-04-24T12:15:22;97330.91;;;24.01;28.00
58018;BME280;43810;50.860;19.226;2023-04-24T12:17:51;97320.28;;;23.85;27.44
58018;BME280;43810;50.860;19.226;2023-04-24T12:20:17;97323.47;;;23.83;29.44
58018;BME280;43810;50.860;19.226;2023-04-24T12:22:48;97324.28;;;24.02;27.67
58018;BME280;43810;50.860;19.226;2023-04-24T12:25:18;97324.00;;;24.09;29.96
58018;BME280;43810;50.860;19.226;2023-04-24T12:27:45;97321.59;;;24.11;30.62
58018;BME280;43810;50.860;19.226;2023-04-24T12:30:13;97318.66;;;23.56;30.02
58018;BME280;43810;50.860;19.226;2023-04-24T12:32:45;97313.69;;;23.33;29.57
58018;BME280;43810;50.860;19.226;2023-04-24T12:35:12;97314.16;;;22.75;30.17
58018;BME280;43810;50.860;19.226;2023-04-24T12:37:38;97310.34;;;22.51;31.06
58018;BME280;43810;50.860;19.226;2023-04-24T12:40:12;97309.84;;;22.18;31.04
58018;BME280;43810;50.860;19.226;2023-04-24T12:42:46;97312.56;;;21.92;31.14
58018;BME280;43810;50.860;19.226;2023-04-24T12:45:13;97303.94;;;21.85;30.09
58018;BME280;43810;50.860;19.226;2023-04-24T12:47:41;97314.09;;;21.81;32.38
58018;BME280;43810;50.860;19.226;2023-04-24T12:50:12;97313.13;;;21.75;31.71
58018;BME280;43810;50.860;19.226;2023-04-24T12:52:39;97312.47;;;21.83;30.98
58018;BME280;43810;50.860;19.226;2023-04-24T12:55:06;97312.06;;;21.85;32.10
58018;BME280;43810;50.860;19.226;2023-04-24T12:57:36;97308.69;;;22.06;32.12
58018;BME280;43810;50.860;19.226;2023-04-24T13:00:03;97308.03;;;22.02;34.01
58018;BME280;43810;50.860;19.226;2023-04-24T13:02:30;97312.91;;;22.07;37.08
58018;BME280;43810;50.860;19.226;2023-04-24T13:04:57;97312.69;;;21.64;38.65
58018;BME280;43810;50.860;19.226;2023-04-24T13:07:24;97313.56;;;21.32;41.10